createdAt,value
2023-04-09T00:01:43.939Z,22.95
2023-04-09T00:04:13.039Z,23.02
2023-04-09T00:06:42.514Z,23.02
2023-04-09T00:09:11.786Z,22.94
2023-04-09T00:11:41.389Z,22.94
2023-04-09T00:14:10.314Z,22.98
2023-04-09T00:16:39.319Z,22.95
2023-04-09T00:19:08.730Z,22.78
2023-04-09T00:21:38.376Z,22.63
2023-04-09T00:24:08.189Z,22.72
2023-04-09T00:26:37.321Z,22.74
2023-04-09T00:29:06.615Z,22.49
2023-04-09T00:31:35.801Z,22.54
2023-04-09T00:34:04.933Z,22.51
2023-04-09T00:36:33.872Z,22.46
2023-04-09T00:39:02.953Z,22.50
2023-04-09T00:41:32.266Z,22.36
2023-04-09T00:44:01.639Z,22.34
2023-04-09T00:46:32.661Z,22.31
2023-04-09T00:49:01.932Z,22.31
2023-04-09T00:51:31.106Z,22.37
2023-04-09T00:54:00.548Z,22.24
2023-04-09T00:56:31.077Z,22.13
2023-04-09T00:59:01.396Z,22.11
2023-04-09T01:01:30.459Z,22.16
2023-04-09T01:03:59.820Z,22.30
2023-04-09T01:06:34.301Z,22.34
2023-04-09T01:09:15.046Z,22.37
2023-04-09T01:12:22.136Z,22.50
2023-04-09T01:15:07.726Z,22.46
2023-04-09T01:18:01.413Z,22.48
2023-04-09T01:20:58.567Z,22.50
2023-04-09T01:23:48.491Z,22.44
2023-04-09T01:26:29.650Z,22.46
2023-04-09T01:29:01.409Z,22.43
2023-04-09T01:31:35.720Z,22.51
2023-04-09T01:34:06.679Z,22.69
2023-04-09T01:36:37.013Z,22.65
2023-04-09T01:39:07.885Z,22.77
2023-04-09T01:41:39.271Z,22.83
2023-04-09T01:44:11.356Z,22.99
2023-04-09T01:46:42.265Z,23.11
2023-04-09T01:49:12.595Z,23.20
2023-04-09T01:51:42.474Z,23.27
2023-04-09T01:54:11.752Z,23.35
2023-04-09T01:56:47.315Z,23.46
2023-04-09T01:59:16.850Z,23.40
2023-04-09T02:01:49.075Z,23.63
2023-04-09T02:04:25.251Z,23.75
2023-04-09T02:07:10.372Z,23.93
2023-04-09T02:09:42.715Z,23.95
2023-04-09T02:12:15.774Z,24.10
2023-04-09T02:14:48.308Z,24.21
2023-04-09T02:17:17.833Z,24.25
2023-04-09T02:19:49.418Z,24.36
2023-04-09T02:22:18.684Z,24.46
2023-04-09T02:24:48.280Z,24.55
2023-04-09T02:27:18.033Z,24.63
2023-04-09T02:29:47.475Z,24.74
2023-04-09T02:32:16.817Z,24.87
2023-04-09T02:34:47.035Z,24.93
2023-04-09T02:37:16.506Z,24.98
2023-04-09T02:39:45.767Z,25.09
2023-04-09T02:42:14.877Z,25.20
2023-04-09T02:44:45.217Z,25.27
2023-04-09T02:47:16.428Z,25.34
2023-04-09T02:49:45.537Z,25.45
2023-04-09T02:52:14.443Z,25.48
2023-04-09T02:54:43.496Z,25.56
2023-04-09T02:57:12.735Z,25.64
2023-04-09T02:59:41.960Z,25.65
2023-04-09T03:02:11.441Z,25.77
2023-04-09T03:04:41.297Z,25.84
2023-04-09T03:07:10.303Z,25.90
2023-04-09T03:09:39.437Z,26.03
2023-04-09T03:12:08.703Z,26.08
2023-04-09T03:14:37.768Z,26.14
2023-04-09T03:17:06.743Z,26.24
2023-04-09T03:19:35.953Z,26.32
2023-04-09T03:22:05.486Z,26.38
2023-04-09T03:24:35.112Z,26.47
2023-04-09T03:27:07.621Z,26.57
2023-04-09T03:29:36.998Z,26.66
2023-04-09T03:32:07.429Z,26.76
2023-04-09T03:34:36.754Z,26.84
2023-04-09T03:37:06.862Z,26.97
2023-04-09T03:39:35.788Z,27.03
2023-04-09T03:42:05.103Z,27.14
2023-04-09T03:44:44.204Z,27.24
2023-04-09T03:47:17.591Z,27.44
2023-04-09T03:49:46.485Z,27.51
2023-04-09T03:52:26.455Z,27.58
2023-04-09T03:55:08.873Z,27.74
2023-04-09T03:57:38.626Z,27.85
2023-04-09T04:00:11.249Z,27.98
2023-04-09T04:02:53.418Z,28.16
2023-04-09T04:05:42.428Z,28.27
2023-04-09T04:08:15.341Z,28.45
2023-04-09T04:10:44.677Z,28.49
2023-04-09T04:13:16.336Z,28.63
2023-04-09T04:15:51.818Z,28.79
2023-04-09T04:18:23.610Z,28.95
2023-04-09T04:20:55.168Z,29.08
2023-04-09T04:23:24.475Z,29.09
2023-04-09T04:26:00.142Z,29.23
2023-04-09T04:28:34.113Z,29.32
2023-04-09T04:31:03.868Z,29.61
2023-04-09T04:33:34.284Z,29.72
2023-04-09T04:36:11.974Z,29.87
2023-04-09T04:38:44.443Z,30.05
2023-04-09T04:41:36.551Z,30.18
2023-04-09T04:44:11.227Z,30.28
2023-04-09T04:46:41.708Z,30.41
2023-04-09T04:49:10.838Z,30.36
2023-04-09T04:51:47.314Z,30.42
2023-04-09T04:54:18.217Z,30.66
2023-04-09T04:56:52.903Z,30.79
2023-04-09T04:59:33.966Z,30.85
2023-04-09T05:02:09.153Z,30.79
2023-04-09T05:04:49.158Z,30.99
2023-04-09T05:07:20.741Z,31.15
2023-04-09T05:09:53.194Z,31.29
2023-04-09T05:12:22.325Z,31.33
2023-04-09T05:14:54.167Z,31.42
2023-04-09T05:17:23.394Z,31.58
2023-04-09T05:19:53.783Z,31.59
2023-04-09T05:22:29.862Z,31.52
2023-04-09T05:24:59.078Z,31.75
2023-04-09T05:27:29.141Z,31.89
2023-04-09T05:30:02.497Z,31.91
2023-04-09T05:32:31.721Z,32.06
2023-04-09T05:35:02.155Z,32.15
2023-04-09T05:37:32.723Z,32.24
2023-04-09T05:40:03.226Z,32.38
2023-04-09T05:42:32.723Z,32.51
2023-04-09T05:45:05.743Z,32.56
2023-04-09T05:47:34.890Z,32.46
2023-04-09T05:50:13.589Z,32.74
2023-04-09T05:52:43.073Z,32.84
2023-04-09T05:55:14.365Z,32.89
2023-04-09T05:57:54.582Z,32.95
2023-04-09T06:00:23.696Z,33.08
2023-04-09T06:02:52.859Z,32.96
2023-04-09T06:05:22.343Z,33.08
2023-04-09T06:07:51.543Z,33.03
2023-04-09T06:10:20.637Z,32.93
2023-04-09T06:12:50.792Z,33.27
2023-04-09T06:15:20.036Z,33.29
2023-04-09T06:17:49.201Z,33.47
2023-04-09T06:20:18.493Z,33.58
2023-04-09T06:22:47.386Z,33.60
2023-04-09T06:25:16.616Z,33.60
2023-04-09T06:27:45.850Z,33.60
2023-04-09T06:30:15.123Z,33.68
2023-04-09T06:32:53.726Z,33.69
2023-04-09T06:35:24.061Z,33.60
2023-04-09T06:37:53.126Z,33.69
2023-04-09T06:40:24.034Z,33.48
2023-04-09T06:42:53.316Z,33.60
2023-04-09T06:45:29.373Z,33.75
2023-04-09T06:47:58.783Z,33.61
2023-04-09T06:50:28.557Z,33.52
2023-04-09T06:52:58.385Z,33.78
2023-04-09T06:55:28.066Z,33.73
2023-04-09T06:57:57.172Z,33.71
2023-04-09T07:00:26.476Z,33.79
2023-04-09T07:02:55.813Z,33.65
2023-04-09T07:05:25.319Z,33.73
2023-04-09T07:07:54.660Z,33.86
2023-04-09T07:10:23.538Z,33.77
2023-04-09T07:12:52.751Z,33.97
2023-04-09T07:15:21.754Z,34.12
2023-04-09T07:17:50.737Z,34.05
2023-04-09T07:20:19.896Z,34.27
2023-04-09T07:22:48.855Z,34.19
2023-04-09T07:25:18.229Z,34.45
2023-04-09T07:27:47.709Z,34.47
2023-04-09T07:30:16.974Z,34.46
2023-04-09T07:32:46.023Z,34.57
2023-04-09T07:35:15.323Z,34.45
2023-04-09T07:37:44.558Z,34.31
2023-04-09T07:40:13.795Z,34.25
2023-04-09T07:42:43.471Z,34.42
2023-04-09T07:45:12.786Z,34.53
2023-04-09T07:47:44.658Z,34.27
2023-04-09T07:50:13.840Z,34.38
2023-04-09T07:52:43.594Z,34.33
2023-04-09T07:55:12.542Z,34.65
2023-04-09T07:57:41.695Z,34.44
2023-04-09T08:00:11.730Z,34.42
2023-04-09T08:02:45.678Z,34.32
2023-04-09T08:05:14.866Z,34.36
2023-04-09T08:07:44.154Z,34.51
2023-04-09T08:10:16.277Z,34.49
2023-04-09T08:12:45.946Z,34.45
2023-04-09T08:15:14.957Z,34.80
2023-04-09T08:17:44.083Z,34.83
2023-04-09T08:20:13.613Z,34.95
2023-04-09T08:22:43.098Z,34.80
2023-04-09T08:25:12.339Z,35.00
2023-04-09T08:27:41.638Z,34.83
2023-04-09T08:30:11.598Z,34.77
2023-04-09T08:32:40.545Z,35.04
2023-04-09T08:35:10.441Z,35.07
2023-04-09T08:37:40.697Z,34.93
2023-04-09T08:40:10.383Z,34.61
2023-04-09T08:42:49.042Z,34.86
2023-04-09T08:45:18.076Z,34.99
2023-04-09T08:47:49.526Z,34.95
2023-04-09T08:50:18.876Z,34.96
2023-04-09T08:52:51.050Z,34.92
2023-04-09T08:55:20.165Z,35.08
2023-04-09T08:57:49.455Z,35.02
2023-04-09T09:00:18.560Z,35.05
2023-04-09T09:03:08.253Z,35.05
2023-04-09T09:05:46.714Z,35.08
2023-04-09T09:08:26.478Z,34.90
2023-04-09T09:10:55.682Z,34.90
2023-04-09T09:13:25.772Z,34.61
2023-04-09T09:16:13.103Z,34.79
2023-04-09T09:18:44.453Z,34.91
2023-04-09T09:21:15.392Z,34.77
2023-04-09T09:23:45.563Z,34.79
2023-04-09T09:26:17.325Z,34.60
2023-04-09T09:28:50.862Z,34.58
2023-04-09T09:31:22.631Z,34.72
2023-04-09T09:33:52.160Z,34.46
2023-04-09T09:36:35.855Z,34.47
2023-04-09T09:39:06.221Z,34.60
2023-04-09T09:41:35.416Z,34.41
2023-04-09T09:44:05.530Z,34.48
2023-04-09T09:46:40.474Z,34.33
2023-04-09T09:49:10.840Z,34.41
2023-04-09T09:51:41.985Z,34.18
2023-04-09T09:54:14.013Z,34.23
2023-04-09T09:56:45.227Z,34.28
2023-04-09T09:59:27.138Z,34.41
2023-04-09T10:02:05.805Z,34.40
2023-04-09T10:04:39.456Z,34.10
2023-04-09T10:07:09.230Z,34.08
2023-04-09T10:09:41.557Z,34.21
2023-04-09T10:12:12.815Z,34.10
2023-04-09T10:14:43.035Z,34.05
2023-04-09T10:17:12.180Z,33.93
2023-04-09T10:19:48.048Z,34.02
2023-04-09T10:22:23.503Z,34.15
2023-04-09T10:24:53.795Z,34.00
2023-04-09T10:27:23.305Z,34.00
2023-04-09T10:29:55.195Z,34.01
2023-04-09T10:32:29.156Z,33.95
2023-04-09T10:35:00.569Z,33.88
2023-04-09T10:37:29.691Z,33.81
2023-04-09T10:39:59.573Z,33.73
2023-04-09T10:42:34.095Z,33.88
2023-04-09T10:45:11.738Z,33.90
2023-04-09T10:47:43.658Z,33.65
2023-04-09T10:50:24.816Z,33.95
2023-04-09T10:52:59.172Z,33.88
2023-04-09T10:55:42.182Z,33.98
2023-04-09T10:58:13.930Z,33.75
2023-04-09T11:00:45.282Z,33.64
2023-04-09T11:03:37.916Z,33.67
2023-04-09T11:06:11.710Z,33.81
2023-04-09T11:08:42.578Z,33.50
2023-04-09T11:11:12.603Z,33.57
2023-04-09T11:13:43.106Z,33.73
2023-04-09T11:16:24.253Z,33.70
2023-04-09T11:18:57.300Z,33.80
2023-04-09T11:21:29.833Z,33.75
2023-04-09T11:23:59.177Z,33.67
2023-04-09T11:26:37.457Z,33.67
2023-04-09T11:29:10.742Z,33.58
2023-04-09T11:31:39.936Z,33.55
2023-04-09T11:34:13.521Z,33.41
2023-04-09T11:36:42.706Z,33.57
2023-04-09T11:39:11.791Z,33.49
2023-04-09T11:41:41.373Z,33.55
2023-04-09T11:44:10.161Z,33.40
2023-04-09T11:46:40.254Z,33.53
2023-04-09T11:49:10.380Z,33.38
2023-04-09T11:51:39.613Z,33.33
2023-04-09T11:54:09.222Z,33.24
2023-04-09T11:56:38.954Z,33.36
2023-04-09T11:59:07.806Z,33.23
2023-04-09T12:01:37.327Z,33.33
2023-04-09T12:04:07.900Z,33.26
2023-04-09T12:06:42.970Z,33.29
2023-04-09T12:09:14.732Z,33.11
2023-04-09T12:11:49.886Z,33.18
2023-04-09T12:14:20.559Z,32.93
2023-04-09T12:16:55.795Z,33.06
2023-04-09T12:19:27.296Z,33.04
2023-04-09T12:21:59.537Z,32.93
2023-04-09T12:24:30.412Z,32.85
2023-04-09T12:26:59.649Z,32.69
2023-04-09T12:29:29.914Z,32.65
2023-04-09T12:31:59.870Z,32.66
2023-04-09T12:34:28.908Z,32.52
2023-04-09T12:36:58.024Z,32.50
2023-04-09T12:39:27.599Z,32.46
2023-04-09T12:41:56.740Z,32.34
2023-04-09T12:44:25.586Z,32.25
2023-04-09T12:46:54.854Z,32.10
2023-04-09T12:49:23.784Z,32.18
2023-04-09T12:51:52.719Z,32.13
2023-04-09T12:54:21.734Z,32.03
2023-04-09T12:56:51.305Z,31.98
2023-04-09T12:59:20.326Z,31.88
2023-04-09T13:01:50.152Z,31.79
2023-04-09T13:04:19.119Z,31.65
2023-04-09T13:06:49.321Z,31.57
2023-04-09T13:09:18.617Z,31.51
2023-04-09T13:11:47.441Z,31.41
2023-04-09T13:14:16.620Z,31.28
2023-04-09T13:16:45.806Z,31.21
2023-04-09T13:19:15.029Z,31.10
2023-04-09T13:21:43.860Z,31.04
2023-04-09T13:24:13.133Z,30.95
2023-04-09T13:26:43.047Z,30.87
2023-04-09T13:29:12.013Z,30.78
2023-04-09T13:31:41.128Z,30.74
2023-04-09T13:34:10.039Z,30.68
2023-04-09T13:36:39.095Z,30.62
2023-04-09T13:39:08.258Z,30.53
2023-04-09T13:41:37.666Z,30.45
2023-04-09T13:44:06.625Z,30.37
2023-04-09T13:46:36.562Z,30.31
2023-04-09T13:49:05.658Z,30.23
2023-04-09T13:51:35.315Z,30.13
2023-04-09T13:54:05.876Z,30.05
2023-04-09T13:56:35.426Z,29.97
2023-04-09T13:59:04.673Z,29.90
2023-04-09T14:01:34.345Z,29.78
2023-04-09T14:04:04.075Z,29.75
2023-04-09T14:06:33.266Z,29.69
2023-04-09T14:09:02.354Z,29.66
2023-04-09T14:11:31.902Z,29.61
2023-04-09T14:14:01.007Z,29.57
2023-04-09T14:16:31.751Z,29.56
2023-04-09T14:19:01.121Z,29.54
2023-04-09T14:21:30.493Z,29.48
2023-04-09T14:23:59.540Z,29.44
2023-04-09T14:26:29.983Z,29.37
2023-04-09T14:28:59.324Z,29.33
2023-04-09T14:31:28.404Z,29.26
2023-04-09T14:33:58.088Z,29.21
2023-04-09T14:36:28.447Z,29.13
2023-04-09T14:38:58.172Z,29.04
2023-04-09T14:41:27.810Z,28.99
2023-04-09T14:43:57.119Z,28.96
2023-04-09T14:46:26.040Z,28.91
2023-04-09T14:48:55.435Z,28.84
2023-04-09T14:51:24.584Z,28.79
2023-04-09T14:53:53.873Z,28.75
2023-04-09T14:56:22.868Z,28.69
2023-04-09T14:58:52.576Z,28.65
2023-04-09T15:01:21.887Z,28.66
2023-04-09T15:03:51.247Z,28.58
2023-04-09T15:06:20.388Z,28.57
2023-04-09T15:08:49.464Z,28.54
2023-04-09T15:11:21.116Z,28.49
2023-04-09T15:13:50.201Z,28.48
2023-04-09T15:16:38.522Z,28.50
2023-04-09T15:19:08.399Z,28.38
2023-04-09T15:21:37.786Z,28.34
2023-04-09T15:24:06.856Z,28.33
2023-04-09T15:26:39.012Z,28.33
2023-04-09T15:29:09.471Z,28.26
2023-04-09T15:31:41.307Z,28.15
2023-04-09T15:34:11.001Z,28.14
2023-04-09T15:36:40.076Z,28.14
2023-04-09T15:39:09.241Z,28.11
2023-04-09T15:41:38.135Z,28.08
2023-04-09T15:44:09.349Z,28.10
2023-04-09T15:46:41.182Z,28.11
2023-04-09T15:49:11.248Z,28.07
2023-04-09T15:51:40.257Z,28.06
2023-04-09T15:54:09.330Z,28.04
2023-04-09T15:56:40.729Z,27.97
2023-04-09T15:59:10.052Z,28.01
2023-04-09T16:01:39.943Z,27.99
2023-04-09T16:04:10.567Z,27.95
2023-04-09T16:06:40.324Z,27.93
2023-04-09T16:09:09.514Z,27.89
2023-04-09T16:11:38.747Z,27.89
2023-04-09T16:14:08.298Z,27.87
2023-04-09T16:16:38.689Z,27.88
2023-04-09T16:19:07.978Z,27.84
2023-04-09T16:21:36.925Z,27.80
2023-04-09T16:24:06.409Z,27.76
2023-04-09T16:26:35.469Z,27.74
2023-04-09T16:29:05.402Z,27.75
2023-04-09T16:31:35.130Z,27.77
2023-04-09T16:34:04.472Z,27.71
2023-04-09T16:36:34.825Z,27.67
2023-04-09T16:39:05.770Z,27.65
2023-04-09T16:41:36.895Z,27.61
2023-04-09T16:44:06.232Z,27.61
2023-04-09T16:46:37.540Z,27.57
2023-04-09T16:49:06.832Z,27.51
2023-04-09T16:51:36.011Z,27.46
2023-04-09T16:54:05.105Z,27.40
2023-04-09T16:56:34.125Z,27.36
2023-04-09T16:59:03.272Z,27.29
2023-04-09T17:01:33.574Z,27.28
2023-04-09T17:04:04.113Z,27.30
2023-04-09T17:06:33.454Z,27.32
2023-04-09T17:09:04.545Z,27.33
2023-04-09T17:11:36.466Z,27.31
2023-04-09T17:14:05.889Z,27.29
2023-04-09T17:16:34.969Z,27.14
2023-04-09T17:19:04.200Z,27.12
2023-04-09T17:21:33.277Z,27.06
2023-04-09T17:24:03.947Z,27.12
2023-04-09T17:26:33.092Z,27.10
2023-04-09T17:29:03.044Z,27.01
2023-04-09T17:31:31.987Z,26.93
2023-04-09T17:34:01.280Z,26.88
2023-04-09T17:36:30.336Z,26.91
2023-04-09T17:38:59.233Z,26.94
2023-04-09T17:41:28.866Z,26.87
2023-04-09T17:43:57.815Z,26.84
2023-04-09T17:46:27.049Z,26.78
2023-04-09T17:48:56.215Z,26.67
2023-04-09T17:51:25.296Z,26.67
2023-04-09T17:53:57.416Z,26.62
2023-04-09T17:56:26.336Z,26.63
2023-04-09T17:58:55.557Z,26.61
2023-04-09T18:01:24.392Z,26.65
2023-04-09T18:03:53.988Z,26.63
2023-04-09T18:06:23.140Z,26.69
2023-04-09T18:08:53.356Z,26.70
2023-04-09T18:11:22.651Z,26.62
2023-04-09T18:13:54.540Z,26.50
2023-04-09T18:16:24.312Z,26.50
2023-04-09T18:18:56.776Z,26.50
2023-04-09T18:21:25.741Z,26.53
2023-04-09T18:23:54.724Z,26.44
2023-04-09T18:26:24.203Z,26.41
2023-04-09T18:28:53.304Z,26.37
2023-04-09T18:31:22.971Z,26.33
2023-04-09T18:33:52.635Z,26.37
2023-04-09T18:36:21.732Z,26.20
2023-04-09T18:38:50.603Z,26.06
2023-04-09T18:41:27.572Z,26.00
2023-04-09T18:43:57.319Z,26.02
2023-04-09T18:46:26.252Z,26.05
2023-04-09T18:48:55.705Z,26.01
2023-04-09T18:51:24.617Z,25.91
2023-04-09T18:53:55.737Z,25.93
2023-04-09T18:56:25.662Z,25.94
2023-04-09T18:58:54.937Z,25.94
2023-04-09T19:01:24.228Z,25.91
2023-04-09T19:03:54.499Z,25.73
2023-04-09T19:06:26.595Z,25.77
2023-04-09T19:08:59.016Z,25.64
2023-04-09T19:11:27.967Z,25.91
2023-04-09T19:13:56.901Z,25.78
2023-04-09T19:16:25.871Z,25.75
2023-04-09T19:18:55.337Z,25.71
2023-04-09T19:21:24.949Z,25.67
2023-04-09T19:23:54.379Z,25.60
2023-04-09T19:26:23.332Z,25.60
2023-04-09T19:28:52.837Z,25.58
2023-04-09T19:31:22.554Z,25.57
2023-04-09T19:33:51.649Z,25.52
2023-04-09T19:36:20.566Z,25.50
2023-04-09T19:38:50.083Z,25.48
2023-04-09T19:41:19.173Z,25.45
2023-04-09T19:43:48.126Z,25.43
2023-04-09T19:46:17.494Z,25.45
2023-04-09T19:48:46.523Z,25.48
2023-04-09T19:51:23.040Z,25.53
2023-04-09T19:53:52.069Z,25.49
2023-04-09T19:56:22.205Z,25.47
2023-04-09T19:58:51.520Z,25.43
2023-04-09T20:01:21.536Z,25.41
2023-04-09T20:03:51.900Z,25.36
2023-04-09T20:06:21.128Z,25.32
2023-04-09T20:08:51.499Z,25.26
2023-04-09T20:11:21.608Z,25.32
2023-04-09T20:13:52.115Z,25.30
2023-04-09T20:16:22.307Z,25.26
2023-04-09T20:18:53.192Z,25.22
2023-04-09T20:21:23.825Z,25.18
2023-04-09T20:23:54.350Z,25.18
2023-04-09T20:26:24.285Z,25.18
2023-04-09T20:28:55.445Z,25.18
2023-04-09T20:31:26.514Z,25.18
2023-04-09T20:33:57.626Z,25.15
2023-04-09T20:36:28.236Z,25.12
2023-04-09T20:38:59.014Z,25.09
2023-04-09T20:41:29.933Z,25.04
2023-04-09T20:44:00.358Z,25.03
2023-04-09T20:46:34.178Z,24.98
2023-04-09T20:49:05.971Z,25.06
2023-04-09T20:51:36.418Z,25.01
2023-04-09T20:54:07.922Z,25.05
2023-04-09T20:56:38.453Z,25.04
2023-04-09T20:59:08.807Z,24.99
2023-04-09T21:01:39.657Z,25.03
2023-04-09T21:04:10.779Z,24.97
2023-04-09T21:06:41.772Z,24.94
2023-04-09T21:09:12.435Z,24.95
2023-04-09T21:11:42.713Z,24.94
2023-04-09T21:14:15.047Z,24.90
2023-04-09T21:16:45.315Z,24.87
2023-04-09T21:19:16.234Z,24.87
2023-04-09T21:21:46.243Z,24.86
2023-04-09T21:24:17.143Z,24.86
2023-04-09T21:26:51.461Z,24.84
2023-04-09T21:29:23.240Z,24.85
2023-04-09T21:31:53.804Z,24.89
2023-04-09T21:34:24.389Z,24.87
2023-04-09T21:36:54.556Z,24.78
2023-04-09T21:39:25.479Z,24.76
2023-04-09T21:41:55.111Z,24.73
2023-04-09T21:44:25.991Z,24.69
2023-04-09T21:46:56.637Z,24.68
2023-04-09T21:49:27.437Z,24.61
2023-04-09T21:51:58.593Z,24.58
2023-04-09T21:54:29.263Z,24.54
2023-04-09T21:57:00.124Z,24.50
2023-04-09T21:59:31.094Z,24.45
2023-04-09T22:02:01.965Z,24.46
2023-04-09T22:04:32.226Z,24.48
2023-04-09T22:07:03.619Z,24.49
2023-04-09T22:09:34.456Z,24.44
2023-04-09T22:12:05.889Z,24.45
2023-04-09T22:14:36.261Z,24.41
2023-04-09T22:17:07.060Z,24.41
2023-04-09T22:19:37.715Z,24.37
2023-04-09T22:22:08.738Z,24.41
2023-04-09T22:24:40.549Z,24.39
2023-04-09T22:27:11.002Z,24.32
2023-04-09T22:29:41.283Z,24.31
2023-04-09T22:32:11.225Z,24.34
2023-04-09T22:34:40.462Z,24.35
2023-04-09T22:37:09.305Z,24.28
2023-04-09T22:39:38.677Z,24.29
2023-04-09T22:42:07.759Z,24.28
2023-04-09T22:44:37.706Z,24.21
2023-04-09T22:47:07.309Z,24.20
2023-04-09T22:49:36.415Z,24.14
2023-04-09T22:52:06.503Z,24.14
2023-04-09T22:54:35.754Z,24.16
2023-04-09T22:57:04.830Z,24.15
2023-04-09T22:59:40.257Z,24.16
2023-04-09T23:02:10.429Z,24.12
2023-04-09T23:04:39.471Z,24.12
2023-04-09T23:07:09.020Z,24.07
2023-04-09T23:09:38.372Z,24.01
2023-04-09T23:12:07.479Z,23.90
2023-04-09T23:14:36.532Z,23.84
2023-04-09T23:17:05.857Z,23.88
2023-04-09T23:19:34.717Z,23.92
2023-04-09T23:22:03.797Z,23.89
2023-04-09T23:24:33.090Z,23.86
2023-04-09T23:27:02.212Z,23.96
2023-04-09T23:29:32.078Z,23.94
2023-04-09T23:32:01.965Z,23.89
2023-04-09T23:34:30.999Z,23.95
2023-04-09T23:37:00.251Z,23.99
2023-04-09T23:39:29.276Z,23.99
2023-04-09T23:41:58.774Z,24.06
2023-04-09T23:44:28.386Z,24.02
2023-04-09T23:46:57.717Z,24.02
2023-04-09T23:49:30.716Z,24.07
2023-04-09T23:52:00.256Z,23.97
2023-04-09T23:54:29.145Z,23.94
2023-04-09T23:57:00.800Z,23.91
2023-04-09T23:59:34.792Z,23.87
